Time;durP1;ratioP1;P1;durP2;ratioP2;P2;SDS_P1;SDS_P2;PMS_P1;PMS_P2;Temp;Humidity;BMP_temperature;BMP_pressure;BME280_temperature;BME280_humidity;BME280_pressure;Samples;Min_cycle;Max_cycle;Signal;HPM_P1;HPM_P2
2021/06/20 00:01:20;;;;;;;3.30;3.00;;;21.30;80.30;;;;;;10497141;28;20193;-27
2021/06/20 00:06:49;;;;;;;3.40;3.00;;;21.30;80.40;;;;;;10494497;28;20212;-28
2021/06/20 00:12:12;;;;;;;3.37;3.07;;;21.30;80.40;;;;;;10493948;28;20210;-27
2021/06/20 00:17:34;;;;;;;3.30;3.10;;;21.30;80.50;;;;;;10494181;28;20212;-27
2021/06/20 00:22:58;;;;;;;4.47;3.13;;;21.30;80.40;;;;;;10492825;28;20591;-28
2021/06/20 00:28:20;;;;;;;3.10;2.80;;;21.30;80.40;;;;;;10445628;28;20731;-28
2021/06/20 00:33:43;;;;;;;3.40;3.10;;;21.30;80.50;;;;;;10451531;28;20577;-27
2021/06/20 00:39:06;;;;;;;3.30;2.87;;;21.30;80.40;;;;;;10459144;28;20197;-28
2021/06/20 00:44:29;;;;;;;3.10;2.80;;;21.30;80.50;;;;;;10492898;28;20687;-27
2021/06/20 00:49:51;;;;;;;3.50;3.20;;;21.30;80.50;;;;;;10498869;28;20656;-27
2021/06/20 00:55:15;;;;;;;3.40;3.10;;;21.30;80.50;;;;;;10499853;28;20220;-27
2021/06/20 01:00:37;;;;;;;3.40;3.10;;;21.30;80.50;;;;;;10463495;28;20209;-28
2021/06/20 01:06:00;;;;;;;5.67;3.10;;;21.30;80.60;;;;;;10459528;28;20706;-27
2021/06/20 01:11:24;;;;;;;3.03;2.73;;;21.30;80.60;;;;;;10459644;28;20612;-27
2021/06/20 01:16:46;;;;;;;3.40;3.10;;;21.30;80.60;;;;;;10416995;28;20221;-27
2021/06/20 01:22:17;;;;;;;3.70;3.40;;;21.30;80.60;;;;;;10454399;28;20561;-28
2021/06/20 01:27:42;;;;;;;3.37;3.07;;;21.30;80.60;;;;;;10497906;28;20215;-27
2021/06/20 01:33:07;;;;;;;3.13;2.93;;;21.30;80.70;;;;;;10497469;28;20738;-27
2021/06/20 01:38:30;;;;;;;3.37;3.03;;;21.30;80.60;;;;;;10497235;28;20207;-27
2021/06/20 01:43:52;;;;;;;3.50;3.20;;;21.30;80.70;;;;;;10496595;28;20239;-27
2021/06/20 01:49:14;;;;;;;2.80;2.60;;;21.30;80.60;;;;;;10482350;28;20557;-28
2021/06/20 01:54:49;;;;;;;3.17;2.97;;;21.30;80.70;;;;;;10455935;28;20232;-27
2021/06/20 02:00:14;;;;;;;3.60;3.30;;;21.30;80.70;;;;;;10456020;28;20193;-29
2021/06/20 02:05:37;;;;;;;3.40;2.80;;;21.30;80.80;;;;;;10456575;28;20224;-28
2021/06/20 02:11:00;;;;;;;3.33;3.07;;;21.30;80.80;;;;;;10455702;28;20200;-27
2021/06/20 02:16:23;;;;;;;3.87;3.57;;;21.30;80.80;;;;;;10484925;28;20316;-27
2021/06/20 02:21:45;;;;;;;3.60;3.30;;;21.30;80.80;;;;;;10454777;28;20197;-27
2021/06/20 02:27:10;;;;;;;3.60;3.30;;;21.30;80.80;;;;;;10492126;28;20220;-28
2021/06/20 02:32:32;;;;;;;3.53;3.23;;;21.30;80.70;;;;;;10496954;28;20283;-28
2021/06/20 02:37:54;;;;;;;3.10;2.90;;;21.30;80.80;;;;;;10497320;28;20205;-28
2021/06/20 02:43:18;;;;;;;3.57;3.27;;;21.30;80.70;;;;;;10497218;28;20208;-28
2021/06/20 02:48:40;;;;;;;4.50;3.60;;;21.30;80.80;;;;;;10495065;28;20204;-27
2021/06/20 02:54:02;;;;;;;3.63;3.33;;;21.30;80.90;;;;;;10462422;28;20213;-26
2021/06/20 02:59:25;;;;;;;3.40;3.13;;;21.30;80.90;;;;;;10454764;28;20698;-27
2021/06/20 03:04:49;;;;;;;3.70;3.40;;;21.30;80.90;;;;;;10452950;28;20220;-27
2021/06/20 03:10:11;;;;;;;3.60;3.30;;;21.30;80.90;;;;;;10461513;28;20198;-27
2021/06/20 03:15:38;;;;;;;3.27;2.97;;;21.30;80.90;;;;;;10479280;28;20228;-27
2021/06/20 03:21:00;;;;;;;3.20;3.00;;;21.30;80.90;;;;;;10481880;28;20235;-28
2021/06/20 03:26:22;;;;;;;3.70;3.40;;;21.30;80.80;;;;;;10483969;28;20220;-27
2021/06/20 03:31:46;;;;;;;4.00;3.70;;;21.30;81.00;;;;;;10495398;28;20200;-27
2021/06/20 03:37:08;;;;;;;3.67;3.37;;;21.30;81.00;;;;;;10494678;28;20216;-28
2021/06/20 03:42:30;;;;;;;3.77;3.47;;;21.30;80.80;;;;;;10493615;28;20568;-28
2021/06/20 03:47:53;;;;;;;3.80;3.50;;;21.30;81.00;;;;;;10493665;28;20655;-28
2021/06/20 03:53:15;;;;;;;3.90;3.60;;;21.30;81.10;;;;;;10493727;28;20251;-28
2021/06/20 03:58:38;;;;;;;3.57;3.37;;;21.30;81.20;;;;;;10546318;22;20727;-32
2021/06/20 04:04:01;;;;;;;3.60;3.30;;;21.30;81.20;;;;;;10534897;28;20547;-31
2021/06/20 04:09:23;;;;;;;3.60;3.20;;;21.30;81.20;;;;;;10542486;28;20230;-29
2021/06/20 04:14:45;;;;;;;3.70;3.33;;;21.30;81.00;;;;;;10535819;28;20219;-30
2021/06/20 04:20:12;;;;;;;3.73;3.43;;;21.30;81.00;;;;;;10536551;28;20200;-31
2021/06/20 04:25:34;;;;;;;4.33;3.47;;;21.30;80.90;;;;;;10552402;28;20230;-28
2021/06/20 04:30:57;;;;;;;4.27;3.87;;;21.30;80.90;;;;;;10577045;28;20684;-30
2021/06/20 04:36:20;;;;;;;4.37;3.63;;;21.30;80.90;;;;;;10584769;28;20273;-29
2021/06/20 04:41:42;;;;;;;3.40;3.10;;;21.30;80.90;;;;;;10585144;28;20689;-31
2021/06/20 04:47:05;;;;;;;3.50;3.20;;;21.30;81.00;;;;;;10545778;28;20212;-31
2021/06/20 04:52:28;;;;;;;3.97;3.67;;;21.30;81.00;;;;;;10558234;28;20198;-31
2021/06/20 04:57:50;;;;;;;3.37;3.07;;;21.30;80.90;;;;;;10541535;28;20219;-29
2021/06/20 05:03:12;;;;;;;3.50;3.20;;;21.30;81.00;;;;;;10541565;28;20698;-30
2021/06/20 05:08:36;;;;;;;3.60;3.30;;;21.30;81.00;;;;;;10541436;28;20215;-29
2021/06/20 05:13:58;;;;;;;3.80;3.50;;;21.30;81.10;;;;;;10549050;28;20226;-29
2021/06/20 05:19:20;;;;;;;3.90;3.20;;;21.30;81.10;;;;;;10542000;28;20242;-29
2021/06/20 05:24:44;;;;;;;3.50;3.20;;;21.30;81.10;;;;;;10582762;28;20191;-29
2021/06/20 05:30:07;;;;;;;3.70;3.20;;;21.30;81.10;;;;;;10582818;28;20195;-30
2021/06/20 05:35:29;;;;;;;3.50;3.20;;;21.30;81.20;;;;;;10574001;28;20219;-31
2021/06/20 05:40:53;;;;;;;3.20;2.57;;;21.30;81.20;;;;;;10541328;28;20206;-30
2021/06/20 05:46:17;;;;;;;3.30;3.00;;;21.30;81.10;;;;;;10539755;28;20211;-30
2021/06/20 05:51:39;;;;;;;2.93;2.70;;;21.30;81.20;;;;;;10548360;28;20547;-30
2021/06/20 05:57:03;;;;;;;3.50;3.20;;;21.30;81.20;;;;;;10579649;28;20585;-31
2021/06/20 06:02:25;;;;;;;3.20;2.90;;;21.30;81.20;;;;;;10538506;28;20623;-30
2021/06/20 06:07:47;;;;;;;3.37;3.07;;;21.30;81.20;;;;;;10540908;27;20219;-29
2021/06/20 06:13:11;;;;;;;3.07;2.83;;;21.30;81.30;;;;;;10540046;27;20267;-30
2021/06/20 06:18:33;;;;;;;3.13;2.83;;;21.30;81.30;;;;;;10539483;28;20212;-30
2021/06/20 06:23:55;;;;;;;3.93;2.77;;;21.30;81.30;;;;;;10536028;28;20192;-30
2021/06/20 06:29:18;;;;;;;3.00;2.73;;;21.30;81.40;;;;;;10539237;28;20219;-32
2021/06/20 06:34:41;;;;;;;3.63;2.83;;;21.30;81.30;;;;;;10538070;28;20694;-29
2021/06/20 06:40:04;;;;;;;3.77;2.93;;;21.30;81.40;;;;;;10537084;28;20203;-29
2021/06/20 06:45:27;;;;;;;2.93;2.60;;;21.30;81.40;;;;;;10544421;28;20218;-30
2021/06/20 06:50:50;;;;;;;2.70;2.50;;;21.30;81.40;;;;;;10537357;28;20199;-28
2021/06/20 06:56:12;;;;;;;2.97;2.73;;;21.30;81.40;;;;;;10536743;28;20227;-29
2021/06/20 07:01:35;;;;;;;3.10;2.80;;;21.30;81.40;;;;;;10536568;28;20201;-28
2021/06/20 07:06:57;;;;;;;4.03;2.80;;;21.30;81.30;;;;;;10569029;28;20211;-29
2021/06/20 07:12:20;;;;;;;4.13;2.70;;;21.40;81.40;;;;;;10559876;28;20191;-31
2021/06/20 07:17:43;;;;;;;5.07;2.43;;;21.30;81.30;;;;;;10547548;28;20219;-31
2021/06/20 07:23:05;;;;;;;3.20;2.33;;;21.30;81.20;;;;;;10547385;28;20202;-29
2021/06/20 07:28:28;;;;;;;4.30;2.43;;;21.40;81.20;;;;;;10541498;28;20618;-29
2021/06/20 07:33:51;;;;;;;2.70;2.50;;;21.40;81.20;;;;;;10534241;28;20690;-29
2021/06/20 07:39:14;;;;;;;3.53;2.77;;;21.40;81.20;;;;;;10536155;28;20212;-30
2021/06/20 07:44:36;;;;;;;5.87;2.90;;;21.40;81.10;;;;;;10541201;28;20313;-29
2021/06/20 07:50:00;;;;;;;5.97;3.10;;;21.40;81.60;;;;;;10565776;28;20206;-29
2021/06/20 07:55:22;;;;;;;5.07;3.37;;;21.50;82.90;;;;;;10493044;28;20227;-31
2021/06/20 08:00:44;;;;;;;9.73;3.87;;;21.50;83.60;;;;;;10492832;28;20215;-28
2021/06/20 08:06:08;;;;;;;7.43;4.17;;;21.60;85.20;;;;;;10524534;28;20219;-29
2021/06/20 08:11:32;;;;;;;8.07;3.10;;;21.60;85.70;;;;;;10535356;28;20200;-36
2021/06/20 08:16:54;;;;;;;8.53;3.63;;;21.70;85.50;;;;;;10534060;28;20216;-30
2021/06/20 08:22:18;;;;;;;6.47;3.10;;;21.70;85.30;;;;;;10534908;28;20211;-30
2021/06/20 08:27:41;;;;;;;6.87;3.33;;;21.70;85.30;;;;;;10530301;28;20211;-31
2021/06/20 08:33:03;;;;;;;7.03;3.03;;;21.70;85.20;;;;;;10531767;28;20196;-31
2021/06/20 08:38:26;;;;;;;9.50;3.80;;;21.70;85.80;;;;;;10531306;28;20216;-31
2021/06/20 08:43:49;;;;;;;20.77;6.07;;;21.70;85.40;;;;;;10532549;28;20560;-29
2021/06/20 08:49:12;;;;;;;13.60;5.77;;;21.70;85.50;;;;;;10532103;28;20226;-30
2021/06/20 08:54:37;;;;;;;21.67;5.90;;;21.70;85.60;;;;;;10528572;28;20760;-31
2021/06/20 08:59:59;;;;;;;13.47;5.60;;;21.70;85.60;;;;;;10530367;28;20219;-32
2021/06/20 09:05:21;;;;;;;10.47;4.53;;;21.80;85.50;;;;;;10531305;28;20216;-30
2021/06/20 09:10:45;;;;;;;11.57;5.37;;;21.80;85.10;;;;;;10545038;28;20199;-30
2021/06/20 09:16:08;;;;;;;10.43;5.80;;;21.80;85.30;;;;;;10551402;28;20226;-29
2021/06/20 09:21:30;;;;;;;7.80;5.20;;;21.80;84.60;;;;;;10539951;28;20214;-29
2021/06/20 09:26:55;;;;;;;9.00;5.57;;;21.80;84.40;;;;;;10565739;28;20222;-30
2021/06/20 09:32:18;;;;;;;6.30;5.17;;;21.80;84.50;;;;;;10540781;28;20206;-28
2021/06/20 09:37:50;;;;;;;7.80;5.70;;;21.70;84.50;;;;;;10547536;28;20777;-29
2021/06/20 09:43:15;;;;;;;6.70;5.93;;;21.80;84.70;;;;;;10561281;28;20199;-30
2021/06/20 09:48:38;;;;;;;6.83;5.90;;;21.80;84.90;;;;;;10546062;28;20212;-29
2021/06/20 09:54:00;;;;;;;17.20;7.97;;;21.80;84.60;;;;;;10547488;28;20712;-30
2021/06/20 10:04:32;;;;;;;18.73;8.00;;;21.90;84.90;;;;;;10417305;28;20247;-31
2021/06/20 10:09:57;;;;;;;11.30;6.60;;;21.90;84.20;;;;;;10415526;28;20699;-30
2021/06/20 10:15:21;;;;;;;15.63;6.70;;;21.90;84.00;;;;;;10413536;28;20720;-34
2021/06/20 10:20:45;;;;;;;6.07;5.43;;;21.90;83.30;;;;;;10404160;28;20224;-34
2021/06/20 10:26:08;;;;;;;8.87;6.13;;;21.90;83.10;;;;;;10414905;28;20679;-30
2021/06/20 10:31:35;;;;;;;11.73;5.83;;;21.90;83.20;;;;;;10412006;28;20233;-33
2021/06/20 10:37:00;;;;;;;7.07;5.47;;;21.90;83.30;;;;;;10412448;28;20220;-32
2021/06/20 10:42:35;;;;;;;18.77;6.87;;;21.90;83.30;;;;;;10413300;28;20213;-30
2021/06/20 10:47:59;;;;;;;18.03;5.93;;;21.90;83.50;;;;;;10412269;28;20186;-36
2021/06/20 10:53:24;;;;;;;16.83;6.37;;;21.90;83.10;;;;;;10403594;28;20229;-34
2021/06/20 10:58:50;;;;;;;12.30;5.67;;;21.90;83.10;;;;;;10410135;28;20214;-36
2021/06/20 11:04:12;;;;;;;8.20;5.53;;;21.90;83.10;;;;;;10405147;28;20228;-34
2021/06/20 11:09:38;;;;;;;8.13;5.37;;;21.90;82.60;;;;;;10411273;28;20612;-30
2021/06/20 11:15:02;;;;;;;5.03;4.43;;;21.90;82.10;;;;;;10411372;28;20221;-37
2021/06/20 11:20:24;;;;;;;5.03;4.57;;;21.90;82.10;;;;;;10412259;28;20596;-32
2021/06/20 11:25:54;;;;;;;4.73;4.27;;;21.90;81.90;;;;;;10411245;28;20194;-31
2021/06/20 11:31:16;;;;;;;7.67;3.90;;;21.90;81.70;;;;;;10409970;28;20593;-32
2021/06/20 11:36:38;;;;;;;5.40;3.80;;;21.90;80.90;;;;;;10410608;28;20224;-34
2021/06/20 11:42:02;;;;;;;5.97;3.40;;;21.90;80.50;;;;;;10410968;28;20222;-38
2021/06/20 11:47:29;;;;;;;3.83;3.30;;;21.90;80.10;;;;;;10410941;28;20661;-30
2021/06/20 11:52:55;;;;;;;5.70;3.53;;;21.90;79.70;;;;;;10410298;28;20225;-30
2021/06/20 11:58:20;;;;;;;3.93;3.50;;;21.90;80.20;;;;;;10410909;28;20229;-35
2021/06/20 12:03:42;;;;;;;4.83;3.53;;;21.90;80.60;;;;;;10410766;28;20227;-33
2021/06/20 12:09:06;;;;;;;7.87;3.60;;;21.90;81.10;;;;;;10410471;28;20190;-35
2021/06/20 12:14:31;;;;;;;9.10;3.73;;;21.80;81.00;;;;;;10408423;28;20663;-32
2021/06/20 12:19:54;;;;;;;10.97;3.80;;;21.80;81.40;;;;;;10412079;28;20223;-31
2021/06/20 12:25:16;;;;;;;7.30;3.60;;;21.80;81.50;;;;;;10409274;28;20687;-32
2021/06/20 12:30:41;;;;;;;7.10;3.57;;;21.70;81.70;;;;;;10406381;28;20598;-32
2021/06/20 12:36:04;;;;;;;6.40;3.87;;;21.70;81.90;;;;;;10409152;28;20699;-30
2021/06/20 12:41:27;;;;;;;9.97;3.83;;;21.70;82.10;;;;;;10410299;28;20214;-33
2021/06/20 12:46:53;;;;;;;5.07;3.50;;;21.70;82.20;;;;;;10417274;28;20198;-33
2021/06/20 12:52:15;;;;;;;6.50;3.47;;;21.60;82.30;;;;;;10414519;28;20210;-36
2021/06/20 12:57:37;;;;;;;3.90;3.50;;;21.60;82.40;;;;;;10405818;28;20221;-33
2021/06/20 13:03:03;;;;;;;6.47;3.40;;;21.60;82.40;;;;;;10412604;28;20596;-32
2021/06/20 13:08:29;;;;;;;5.80;3.33;;;21.60;82.50;;;;;;10416057;28;20193;-33
2021/06/20 13:13:51;;;;;;;3.60;3.30;;;21.60;82.50;;;;;;10415452;28;20214;-31
2021/06/20 13:19:15;;;;;;;6.17;3.33;;;21.60;83.20;;;;;;10408800;28;20210;-31
2021/06/20 13:24:37;;;;;;;3.83;3.40;;;21.60;82.70;;;;;;10413004;28;20202;-33
2021/06/20 13:30:00;;;;;;;5.40;3.60;;;21.60;82.70;;;;;;10417308;28;20217;-32
2021/06/20 13:35:24;;;;;;;4.87;3.50;;;21.50;82.70;;;;;;10416485;28;20569;-35
2021/06/20 13:40:46;;;;;;;3.80;3.30;;;21.50;82.70;;;;;;10416066;28;20218;-32
2021/06/20 13:46:09;;;;;;;3.37;3.17;;;21.50;82.80;;;;;;10414480;28;20194;-34
2021/06/20 13:51:33;;;;;;;3.30;3.00;;;21.50;82.80;;;;;;10415225;28;20218;-31
2021/06/20 13:56:57;;;;;;;3.57;3.27;;;21.50;82.80;;;;;;10415058;28;20214;-35
2021/06/20 14:02:20;;;;;;;3.53;3.20;;;21.50;82.90;;;;;;10414775;28;20641;-36
2021/06/20 14:07:43;;;;;;;3.30;3.00;;;21.50;82.90;;;;;;10401073;28;20197;-30
2021/06/20 14:13:06;;;;;;;4.20;3.03;;;21.50;82.90;;;;;;10415286;28;20288;-34
2021/06/20 14:18:28;;;;;;;3.70;3.20;;;21.50;82.90;;;;;;10413618;28;20691;-29
2021/06/20 14:23:53;;;;;;;3.40;3.10;;;21.50;83.00;;;;;;10414844;28;20221;-33
2021/06/20 14:29:15;;;;;;;3.63;3.33;;;21.50;83.00;;;;;;10413375;28;20216;-35
2021/06/20 14:34:37;;;;;;;3.40;3.20;;;21.50;82.90;;;;;;10414063;28;20576;-34
2021/06/20 14:40:00;;;;;;;3.40;3.20;;;21.50;82.90;;;;;;10414007;28;20282;-31
2021/06/20 14:45:23;;;;;;;3.27;3.07;;;21.50;83.00;;;;;;10412621;28;20201;-30
2021/06/20 14:50:45;;;;;;;3.60;3.30;;;21.50;83.10;;;;;;10413584;28;20225;-32
2021/06/20 14:56:08;;;;;;;3.37;3.13;;;21.50;83.10;;;;;;10401634;28;20240;-35
2021/06/20 15:01:30;;;;;;;3.20;3.00;;;21.50;83.10;;;;;;10411362;28;20221;-31
2021/06/20 15:06:53;;;;;;;3.40;3.20;;;21.50;83.10;;;;;;10404833;28;20205;-30
2021/06/20 15:12:17;;;;;;;3.40;3.20;;;21.50;83.10;;;;;;10412648;28;20220;-33
2021/06/20 15:17:39;;;;;;;3.40;3.10;;;21.50;83.20;;;;;;10411434;28;20214;-33
2021/06/20 15:23:02;;;;;;;3.33;3.07;;;21.50;83.20;;;;;;10409904;28;20214;-33
2021/06/20 15:28:26;;;;;;;3.40;3.10;;;21.50;83.10;;;;;;10410970;28;20566;-30
2021/06/20 15:33:48;;;;;;;2.63;2.43;;;21.50;83.10;;;;;;10411010;28;20221;-30
2021/06/20 15:39:10;;;;;;;3.00;2.70;;;21.40;83.00;;;;;;10411520;28;20216;-29
2021/06/20 15:44:34;;;;;;;3.10;2.90;;;21.50;82.90;;;;;;10410131;28;20206;-32
2021/06/20 15:49:56;;;;;;;3.00;2.80;;;21.40;82.60;;;;;;10409286;28;20585;-36
2021/06/20 15:55:20;;;;;;;3.10;2.90;;;21.40;82.60;;;;;;10402995;28;20201;-35
2021/06/20 16:00:46;;;;;;;2.77;2.57;;;21.50;82.80;;;;;;10440882;22;20522;-32
2021/06/20 16:06:10;;;;;;;3.77;2.80;;;21.50;82.70;;;;;;10358885;28;20685;-30
2021/06/20 16:11:32;;;;;;;3.37;2.97;;;21.40;82.70;;;;;;10322058;28;20223;-31
2021/06/20 16:16:56;;;;;;;2.90;2.70;;;21.40;82.70;;;;;;10335037;28;20218;-31
2021/06/20 16:22:18;;;;;;;3.77;3.03;;;21.40;82.70;;;;;;10356273;28;20569;-30
2021/06/20 16:27:41;;;;;;;2.93;2.73;;;21.40;82.70;;;;;;10369915;28;20191;-31
2021/06/20 16:33:05;;;;;;;3.37;3.17;;;21.40;82.70;;;;;;10369518;28;20225;-30
2021/06/20 16:38:27;;;;;;;2.90;2.70;;;21.40;82.70;;;;;;10370558;28;20218;-31
2021/06/20 16:43:49;;;;;;;3.70;2.70;;;21.40;82.70;;;;;;10385498;28;20562;-29
2021/06/20 16:49:13;;;;;;;2.70;2.50;;;21.40;82.70;;;;;;10410883;28;20684;-29
2021/06/20 16:54:36;;;;;;;2.70;2.50;;;21.40;82.60;;;;;;10410876;28;20194;-29
2021/06/20 16:59:58;;;;;;;2.90;2.70;;;21.40;82.70;;;;;;10410822;28;20221;-29
2021/06/20 17:05:22;;;;;;;2.70;2.50;;;21.40;82.50;;;;;;10410945;28;20194;-31
2021/06/20 17:10:44;;;;;;;2.90;2.70;;;21.40;82.50;;;;;;10368549;28;20218;-29
2021/06/20 17:16:06;;;;;;;3.17;2.97;;;21.40;82.60;;;;;;10366661;28;20214;-29
2021/06/20 17:21:30;;;;;;;3.97;2.90;;;21.40;82.70;;;;;;10370307;28;20218;-30
2021/06/20 17:26:53;;;;;;;2.53;2.40;;;21.40;82.80;;;;;;10358966;28;20194;-31
2021/06/20 17:32:15;;;;;;;3.08;2.88;;;21.40;82.90;;;;;;10351415;28;20422;-29
2021/06/20 17:37:39;;;;;;;2.70;2.50;;;21.60;81.50;;;;;;10347752;28;20219;-30
2021/06/20 17:43:01;;;;;;;3.67;2.73;;;21.50;82.40;;;;;;10336417;28;20219;-30
2021/06/20 17:48:24;;;;;;;4.30;3.00;;;21.40;82.30;;;;;;10365541;28;20217;-31
2021/06/20 17:53:47;;;;;;;3.47;2.70;;;21.40;82.60;;;;;;10363703;28;20222;-32
2021/06/20 17:59:09;;;;;;;3.50;2.80;;;21.40;82.80;;;;;;10326930;28;20223;-30
2021/06/20 18:04:31;;;;;;;3.10;2.90;;;21.40;82.80;;;;;;10357879;28;20241;-31
2021/06/20 18:09:55;;;;;;;5.50;2.93;;;21.40;82.90;;;;;;10367998;28;20201;-30
2021/06/20 18:15:18;;;;;;;3.20;2.90;;;21.40;82.80;;;;;;10368198;28;20207;-29
2021/06/20 18:20:41;;;;;;;2.80;2.60;;;21.40;82.70;;;;;;10361960;28;20221;-30
2021/06/20 18:26:05;;;;;;;3.30;3.00;;;21.40;82.70;;;;;;10366097;28;20202;-30
2021/06/20 18:31:27;;;;;;;3.50;3.20;;;21.40;83.40;;;;;;10364945;28;20226;-29
2021/06/20 18:36:49;;;;;;;2.90;2.70;;;21.40;82.90;;;;;;10320497;28;20230;-31
2021/06/20 18:42:13;;;;;;;3.77;3.47;;;21.40;83.00;;;;;;10322824;28;20225;-30
2021/06/20 18:47:35;;;;;;;3.40;3.13;;;21.40;83.10;;;;;;10356991;28;20194;-31
2021/06/20 18:52:57;;;;;;;4.67;3.00;;;21.40;83.10;;;;;;10365686;28;20214;-30
2021/06/20 18:58:21;;;;;;;4.20;3.47;;;21.40;83.10;;;;;;10367141;28;20218;-30
2021/06/20 19:03:43;;;;;;;3.60;3.30;;;21.40;83.10;;;;;;10362364;28;20233;-29
2021/06/20 19:09:05;;;;;;;3.10;2.90;;;21.40;83.10;;;;;;10365041;28;20194;-30
2021/06/20 19:14:29;;;;;;;3.90;3.07;;;21.40;83.10;;;;;;10352005;28;20341;-30
2021/06/20 19:19:51;;;;;;;3.57;3.20;;;21.40;83.00;;;;;;10378106;28;20214;-31
2021/06/20 19:25:14;;;;;;;3.50;3.20;;;21.40;83.00;;;;;;10358840;28;20205;-28
2021/06/20 19:30:38;;;;;;;3.70;3.27;;;21.40;83.10;;;;;;10343452;28;20237;-29
2021/06/20 19:36:00;;;;;;;2.93;2.73;;;21.40;83.10;;;;;;10343835;28;20199;-31
2021/06/20 19:41:23;;;;;;;3.67;3.37;;;21.40;83.20;;;;;;10343720;28;20555;-31
2021/06/20 19:46:47;;;;;;;3.27;2.97;;;21.40;83.30;;;;;;10356027;28;20191;-28
2021/06/20 19:52:09;;;;;;;3.23;3.03;;;21.40;83.30;;;;;;10346485;28;20226;-28
2021/06/20 19:57:31;;;;;;;4.33;3.00;;;21.40;83.30;;;;;;10344640;28;20225;-28
2021/06/20 20:02:55;;;;;;;3.90;3.23;;;21.40;83.30;;;;;;10345997;28;20219;-30
2021/06/20 20:08:17;;;;;;;3.23;2.87;;;21.40;83.30;;;;;;10342266;28;20566;-30
2021/06/20 20:13:40;;;;;;;3.40;3.10;;;21.40;83.30;;;;;;10350517;28;20761;-29
2021/06/20 20:19:05;;;;;;;3.80;3.10;;;21.40;83.30;;;;;;10347755;28;20218;-28
2021/06/20 20:24:27;;;;;;;2.77;2.57;;;21.40;83.30;;;;;;10339043;28;20211;-28
2021/06/20 20:29:49;;;;;;;3.10;2.80;;;21.40;83.40;;;;;;10342688;28;20184;-30
2021/06/20 20:35:13;;;;;;;3.60;2.90;;;21.40;83.40;;;;;;10342534;28;20269;-29
2021/06/20 20:40:36;;;;;;;2.70;2.50;;;21.40;83.40;;;;;;10342524;28;20221;-29
2021/06/20 20:45:58;;;;;;;3.10;2.80;;;21.40;83.40;;;;;;10343351;28;20250;-29
2021/06/20 20:51:21;;;;;;;3.10;2.90;;;21.40;83.40;;;;;;10342139;28;20222;-28
2021/06/20 20:56:44;;;;;;;2.83;2.50;;;21.40;83.40;;;;;;10342672;28;20226;-29
2021/06/20 21:02:06;;;;;;;3.03;2.83;;;21.40;83.40;;;;;;10342575;28;20250;-30
2021/06/20 21:07:29;;;;;;;3.10;2.80;;;21.40;83.40;;;;;;10353204;28;20554;-30
2021/06/20 21:12:51;;;;;;;3.67;2.63;;;21.40;83.40;;;;;;10350782;28;20221;-29
2021/06/20 21:18:14;;;;;;;2.70;2.50;;;21.40;83.40;;;;;;10357223;28;20219;-30
2021/06/20 21:23:37;;;;;;;2.93;2.47;;;21.40;83.40;;;;;;10353117;28;20215;-29
2021/06/20 21:28:59;;;;;;;2.47;2.27;;;21.40;83.50;;;;;;10348326;28;20582;-29
2021/06/20 21:34:21;;;;;;;3.33;2.53;;;21.30;83.50;;;;;;10346371;28;20222;-31
2021/06/20 21:39:46;;;;;;;3.27;2.97;;;21.40;83.50;;;;;;10352754;28;20215;-30
2021/06/20 21:45:10;;;;;;;2.93;2.47;;;21.40;83.50;;;;;;10348339;28;20210;-31
2021/06/20 21:50:32;;;;;;;2.93;2.40;;;21.40;83.50;;;;;;10349643;28;20212;-30
2021/06/20 21:55:56;;;;;;;2.70;2.50;;;21.30;83.50;;;;;;10353539;28;20198;-30
2021/06/20 22:06:27;;;;;;;2.93;2.40;;;21.40;83.40;;;;;;10549909;22;20227;-30
2021/06/20 22:11:51;;;;;;;2.60;2.40;;;21.40;83.40;;;;;;10565733;28;20323;-32
2021/06/20 22:17:13;;;;;;;2.70;2.50;;;21.30;83.40;;;;;;10536849;28;20583;-29
2021/06/20 22:22:35;;;;;;;2.40;2.20;;;21.30;83.40;;;;;;10557030;28;20230;-31
2021/06/20 22:27:59;;;;;;;2.17;1.97;;;21.30;83.40;;;;;;10536436;28;20567;-31
2021/06/20 22:33:23;;;;;;;2.97;2.40;;;21.40;83.50;;;;;;10514759;28;20242;-32
2021/06/20 22:38:45;;;;;;;3.93;2.37;;;21.40;83.50;;;;;;10523612;28;20218;-32
2021/06/20 22:44:09;;;;;;;2.33;2.13;;;21.30;83.50;;;;;;10574640;28;20222;-29
2021/06/20 22:49:31;;;;;;;3.00;2.70;;;21.40;83.50;;;;;;10500073;28;20641;-31
2021/06/20 22:54:54;;;;;;;2.47;2.10;;;21.30;83.40;;;;;;10497758;28;20211;-32
2021/06/20 23:00:22;;;;;;;2.63;2.17;;;21.40;83.50;;;;;;10538829;28;20682;-29
2021/06/20 23:05:44;;;;;;;2.10;2.00;;;21.30;83.40;;;;;;10495402;28;20212;-31
2021/06/20 23:11:07;;;;;;;2.20;2.00;;;21.30;83.50;;;;;;10509768;28;20193;-31
2021/06/20 23:16:31;;;;;;;2.47;2.27;;;21.30;83.40;;;;;;10524469;28;20189;-31
2021/06/20 23:21:53;;;;;;;2.30;2.10;;;21.30;83.40;;;;;;10552547;28;20332;-29
2021/06/20 23:27:16;;;;;;;2.40;2.20;;;21.30;83.40;;;;;;10493167;28;20192;-31
2021/06/20 23:32:41;;;;;;;2.03;1.83;;;21.30;83.40;;;;;;10514363;28;20725;-30
2021/06/20 23:38:03;;;;;;;2.93;1.87;;;21.30;83.40;;;;;;10542231;28;20231;-30
2021/06/20 23:43:26;;;;;;;2.33;1.93;;;21.30;83.40;;;;;;10494393;28;20220;-29
2021/06/20 23:48:49;;;;;;;2.30;2.07;;;21.30;83.40;;;;;;10494965;28;20192;-27
2021/06/20 23:54:11;;;;;;;2.10;1.90;;;21.30;83.40;;;;;;10547650;28;20218;-31
2021/06/20 23:59:33;;;;;;;2.43;2.10;;;21.30;83.40;;;;;;10520749;28;20212;-32
